createdAt,value
2023-04-04T00:00:21.857Z,25.00
2023-04-04T00:01:21.871Z,25.00
2023-04-04T00:02:21.936Z,25.00
2023-04-04T00:03:22.086Z,0.00
2023-04-04T00:04:21.979Z,0.00
2023-04-04T00:05:21.957Z,0.00
2023-04-04T00:06:21.974Z,0.00
2023-04-04T00:07:21.990Z,0.00
2023-04-04T00:08:22.019Z,0.00
2023-04-04T00:09:22.042Z,15.38
2023-04-04T00:10:22.053Z,24.19
2023-04-04T00:11:22.074Z,26.49
2023-04-04T00:12:24.279Z,25.97
2023-04-04T00:13:22.142Z,26.00
2023-04-04T00:14:22.139Z,17.71
2023-04-04T00:15:22.191Z,7.80
2023-04-04T00:16:22.227Z,2.54
2023-04-04T00:17:22.204Z,0.00
2023-04-04T00:18:22.221Z,25.00
2023-04-04T00:19:22.243Z,25.00
2023-04-04T00:20:22.269Z,26.05
2023-04-04T00:21:22.288Z,25.00
2023-04-04T00:22:22.301Z,26.97
2023-04-04T00:23:22.338Z,29.72
2023-04-04T00:24:22.352Z,25.00
2023-04-04T00:25:22.409Z,27.74
2023-04-04T00:26:22.459Z,26.94
2023-04-04T00:27:22.522Z,25.00
2023-04-04T00:28:22.805Z,25.66
2023-04-04T00:29:37.505Z,26.14
2023-04-04T00:30:40.733Z,25.00
2023-04-04T00:31:41.610Z,25.00
2023-04-04T00:32:41.633Z,25.00
2023-04-04T00:33:41.578Z,25.00
2023-04-04T00:34:41.570Z,25.00
2023-04-04T00:35:42.541Z,25.91
2023-04-04T00:36:41.686Z,25.89
2023-04-04T00:37:41.576Z,27.54
2023-04-04T00:38:41.593Z,26.63
2023-04-04T00:39:41.573Z,25.86
2023-04-04T00:40:41.708Z,25.55
2023-04-04T00:41:41.592Z,26.05
2023-04-04T00:42:41.586Z,25.19
2023-04-04T00:43:41.596Z,26.16
2023-04-04T00:44:42.511Z,25.23
2023-04-04T00:45:41.645Z,25.57
2023-04-04T00:46:42.487Z,27.47
2023-04-04T00:47:42.528Z,25.22
2023-04-04T00:48:41.730Z,27.45
2023-04-04T00:49:41.752Z,29.40
2023-04-04T00:50:42.176Z,29.09
2023-04-04T00:51:41.855Z,31.24
2023-04-04T00:52:41.960Z,25.00
2023-04-04T00:53:41.952Z,28.27
2023-04-04T00:54:42.013Z,27.56
2023-04-04T00:55:42.053Z,28.39
2023-04-04T00:56:42.493Z,27.89
2023-04-04T00:57:42.493Z,27.93
2023-04-04T00:58:42.498Z,25.97
2023-04-04T00:59:42.697Z,27.22
2023-04-04T01:00:42.538Z,26.35
2023-04-04T01:01:41.380Z,27.91
2023-04-04T01:02:42.495Z,27.19
2023-04-04T01:03:42.492Z,26.08
2023-04-04T01:04:42.538Z,28.43
2023-04-04T01:05:42.511Z,26.52
2023-04-04T01:06:42.547Z,26.92
2023-04-04T01:07:42.604Z,30.31
2023-04-04T01:08:42.654Z,30.12
2023-04-04T01:09:42.708Z,30.43
2023-04-04T01:10:42.921Z,29.64
2023-04-04T01:11:42.789Z,28.11
2023-04-04T01:12:43.685Z,27.99
2023-04-04T01:13:42.896Z,29.42
2023-04-04T01:14:42.944Z,29.28
2023-04-04T01:15:43.514Z,27.72
2023-04-04T01:16:43.096Z,26.06
2023-04-04T01:17:43.488Z,28.13
2023-04-04T01:18:43.499Z,27.90
2023-04-04T01:19:43.510Z,29.57
2023-04-04T01:20:43.508Z,27.79
2023-04-04T01:21:43.504Z,25.00
2023-04-04T01:22:46.206Z,26.66
2023-04-04T01:23:43.509Z,29.92
2023-04-04T01:24:43.505Z,28.09
2023-04-04T01:25:43.518Z,26.77
2023-04-04T01:26:43.503Z,28.01
2023-04-04T01:27:43.501Z,27.46
2023-04-04T01:28:43.530Z,27.69
2023-04-04T01:29:43.511Z,27.47
2023-04-04T01:30:43.735Z,28.75
2023-04-04T01:31:43.506Z,28.47
2023-04-04T01:32:43.565Z,28.01
2023-04-04T01:33:43.519Z,26.24
2023-04-04T01:34:43.514Z,27.36
2023-04-04T01:35:44.224Z,26.55
2023-04-04T01:36:43.523Z,26.39
2023-04-04T01:37:43.508Z,25.67
2023-04-04T01:38:43.513Z,26.76
2023-04-04T01:39:43.511Z,26.94
2023-04-04T01:40:43.522Z,27.85
2023-04-04T01:41:43.516Z,28.30
2023-04-04T01:42:43.542Z,29.09
2023-04-04T01:43:43.523Z,27.54
2023-04-04T01:44:43.512Z,28.49
2023-04-04T01:45:43.549Z,27.10
2023-04-04T01:46:43.536Z,26.24
2023-04-04T01:47:43.543Z,26.97
2023-04-04T01:48:43.544Z,28.17
2023-04-04T01:49:43.514Z,28.22
2023-04-04T01:50:43.518Z,28.15
2023-04-04T01:51:43.520Z,28.22
2023-04-04T01:52:43.528Z,25.70
2023-04-04T01:53:43.568Z,27.09
2023-04-04T01:54:43.616Z,28.64
2023-04-04T01:55:43.691Z,27.82
2023-04-04T01:56:50.705Z,28.35
2023-04-04T01:57:43.710Z,28.78
2023-04-04T01:58:43.699Z,28.91
2023-04-04T01:59:43.696Z,29.03
2023-04-04T02:00:58.215Z,27.51
2023-04-04T02:01:43.812Z,29.29
2023-04-04T02:02:43.690Z,30.46
2023-04-04T02:03:43.678Z,31.62
2023-04-04T02:04:43.668Z,32.80
2023-04-04T02:05:43.641Z,32.16
2023-04-04T02:06:44.217Z,30.89
2023-04-04T02:07:43.623Z,30.48
2023-04-04T02:08:44.211Z,28.01
2023-04-04T02:09:43.606Z,28.97
2023-04-04T02:10:43.595Z,29.16
2023-04-04T02:11:43.602Z,28.45
2023-04-04T02:12:43.717Z,29.42
2023-04-04T02:13:43.589Z,29.36
2023-04-04T02:14:43.575Z,27.69
2023-04-04T02:15:43.571Z,29.50
2023-04-04T02:16:43.556Z,28.33
2023-04-04T02:17:43.598Z,26.71
2023-04-04T02:18:43.546Z,29.16
2023-04-04T02:19:43.539Z,26.96
2023-04-04T02:20:43.589Z,26.99
2023-04-04T02:21:43.531Z,29.89
2023-04-04T02:22:43.528Z,27.36
2023-04-04T02:23:43.533Z,27.73
2023-04-04T02:24:43.540Z,28.63
2023-04-04T02:25:43.589Z,30.31
2023-04-04T02:26:43.610Z,29.13
2023-04-04T02:27:43.680Z,28.17
2023-04-04T02:28:43.708Z,28.89
2023-04-04T02:29:44.714Z,26.89
2023-04-04T02:30:43.815Z,30.00
2023-04-04T02:31:50.715Z,29.46
2023-04-04T02:32:43.863Z,29.90
2023-04-04T02:33:43.853Z,30.39
2023-04-04T02:34:43.852Z,30.07
2023-04-04T02:35:43.888Z,29.84
2023-04-04T02:36:43.874Z,28.61
2023-04-04T02:37:43.839Z,29.20
2023-04-04T02:38:43.832Z,29.95
2023-04-04T02:39:44.718Z,25.96
2023-04-04T02:40:43.835Z,29.50
2023-04-04T02:41:50.716Z,29.94
2023-04-04T02:42:43.807Z,30.40
2023-04-04T02:43:43.831Z,30.52
2023-04-04T02:44:43.796Z,29.92
2023-04-04T02:45:43.810Z,30.86
2023-04-04T02:46:43.792Z,27.93
2023-04-04T02:47:43.863Z,28.63
2023-04-04T02:48:43.761Z,27.94
2023-04-04T02:49:43.750Z,29.21
2023-04-04T02:50:44.008Z,26.53
2023-04-04T02:51:43.742Z,25.84
2023-04-04T02:52:43.764Z,26.19
2023-04-04T02:53:43.736Z,28.48
2023-04-04T02:54:43.771Z,27.49
2023-04-04T02:55:43.821Z,29.17
2023-04-04T02:56:43.868Z,28.80
2023-04-04T02:57:43.915Z,28.17
2023-04-04T02:58:43.981Z,28.96
2023-04-04T02:59:44.026Z,26.96
2023-04-04T03:00:44.235Z,27.95
2023-04-04T03:01:44.104Z,27.64
2023-04-04T03:02:44.356Z,26.11
2023-04-04T03:03:44.384Z,27.21
2023-04-04T03:06:02.422Z,25.00
2023-04-04T03:07:03.431Z,25.00
2023-04-04T03:08:03.859Z,25.00
2023-04-04T03:09:03.462Z,25.00
2023-04-04T03:10:03.448Z,25.00
2023-04-04T03:11:03.455Z,26.68
2023-04-04T03:12:03.490Z,25.81
2023-04-04T03:13:03.511Z,26.61
2023-04-04T03:14:03.502Z,26.43
2023-04-04T03:15:03.529Z,25.70
2023-04-04T03:16:03.526Z,26.76
2023-04-04T03:17:03.531Z,26.11
2023-04-04T03:18:04.364Z,27.58
2023-04-04T03:19:03.555Z,25.33
2023-04-04T03:20:03.583Z,26.09
2023-04-04T03:21:03.580Z,29.74
2023-04-04T03:22:03.590Z,28.75
2023-04-04T03:23:03.599Z,26.67
2023-04-04T03:24:03.650Z,26.52
2023-04-04T03:25:03.886Z,28.23
2023-04-04T03:26:03.645Z,30.33
2023-04-04T03:27:04.322Z,28.78
2023-04-04T03:28:03.673Z,27.53
2023-04-04T03:29:03.685Z,28.41
2023-04-04T03:30:03.705Z,28.40
2023-04-04T03:31:03.706Z,26.96
2023-04-04T03:32:03.819Z,26.72
2023-04-04T03:33:03.743Z,27.11
2023-04-04T03:34:03.750Z,27.79
2023-04-04T03:35:03.771Z,28.16
2023-04-04T03:36:03.859Z,28.37
2023-04-04T03:37:03.864Z,27.09
2023-04-04T03:38:03.917Z,27.45
2023-04-04T03:39:03.971Z,28.48
2023-04-04T03:40:04.069Z,27.70
2023-04-04T03:41:04.146Z,26.21
2023-04-04T03:42:04.116Z,28.03
2023-04-04T03:43:04.166Z,29.76
2023-04-04T03:44:04.221Z,27.68
2023-04-04T03:45:04.260Z,29.35
2023-04-04T03:46:04.417Z,27.25
2023-04-04T03:47:04.356Z,28.23
2023-04-04T03:48:04.416Z,29.63
2023-04-04T03:49:05.323Z,29.03
2023-04-04T03:50:04.513Z,30.56
2023-04-04T03:51:04.649Z,31.17
2023-04-04T03:52:04.627Z,28.34
2023-04-04T03:53:04.678Z,27.28
2023-04-04T03:54:04.725Z,28.28
2023-04-04T03:55:04.792Z,29.27
2023-04-04T03:56:04.879Z,27.16
2023-04-04T03:57:05.851Z,27.72
2023-04-04T03:58:04.938Z,28.53
2023-04-04T03:59:11.836Z,25.65
2023-04-04T04:00:04.993Z,26.14
2023-04-04T04:01:05.079Z,26.59
2023-04-04T04:02:11.881Z,27.33
2023-04-04T04:03:05.197Z,26.34
2023-04-04T04:04:05.057Z,26.82
2023-04-04T04:05:05.045Z,27.80
2023-04-04T04:06:05.054Z,28.04
2023-04-04T04:07:05.066Z,28.42
2023-04-04T04:08:05.069Z,30.71
2023-04-04T04:09:05.096Z,29.64
2023-04-04T04:10:05.093Z,30.24
2023-04-04T04:11:05.113Z,26.10
2023-04-04T04:12:05.141Z,29.19
2023-04-04T04:13:05.178Z,29.04
2023-04-04T04:14:05.143Z,26.99
2023-04-04T04:15:05.146Z,29.09
2023-04-04T04:16:05.221Z,29.30
2023-04-04T04:17:05.834Z,29.13
2023-04-04T04:18:05.266Z,28.61
2023-04-04T04:19:05.820Z,30.06
2023-04-04T04:20:05.324Z,28.58
2023-04-04T04:21:05.313Z,29.03
2023-04-04T04:22:05.377Z,28.43
2023-04-04T04:23:05.419Z,29.26
2023-04-04T04:24:05.478Z,26.97
2023-04-04T04:25:05.673Z,28.07
2023-04-04T04:26:05.825Z,30.29
2023-04-04T04:27:05.641Z,29.30
2023-04-04T04:28:06.678Z,27.85
2023-04-04T04:29:05.738Z,29.27
2023-04-04T04:30:05.792Z,28.68
2023-04-04T04:31:05.874Z,29.46
2023-04-04T04:32:05.897Z,28.26
2023-04-04T04:33:06.045Z,27.69
2023-04-04T04:34:06.005Z,29.39
2023-04-04T04:35:06.059Z,29.40
2023-04-04T04:36:06.146Z,27.96
2023-04-04T04:37:08.827Z,26.74
2023-04-04T04:38:06.183Z,33.11
2023-04-04T04:39:06.839Z,30.19
2023-04-04T04:40:06.188Z,30.98
2023-04-04T04:41:06.191Z,28.16
2023-04-04T04:42:06.870Z,28.34
2023-04-04T04:43:06.616Z,27.32
2023-04-04T04:44:06.631Z,27.20
2023-04-04T04:45:06.608Z,28.55
2023-04-04T04:46:06.614Z,26.58
2023-04-04T04:47:06.709Z,26.69
2023-04-04T04:48:06.663Z,27.02
2023-04-04T04:49:06.662Z,29.03
2023-04-04T04:50:06.642Z,29.07
2023-04-04T04:51:06.625Z,27.24
2023-04-04T04:52:06.614Z,27.51
2023-04-04T04:53:06.627Z,26.66
2023-04-04T04:54:06.616Z,27.96
2023-04-04T04:55:06.618Z,29.92
2023-04-04T04:56:06.621Z,27.29
2023-04-04T04:57:06.627Z,28.49
2023-04-04T04:58:06.634Z,26.86
2023-04-04T04:59:06.664Z,26.07
2023-04-04T05:01:24.686Z,25.00
2023-04-04T05:02:25.851Z,25.00
2023-04-04T05:03:25.672Z,25.00
2023-04-04T05:04:25.634Z,25.00
2023-04-04T05:05:25.622Z,25.00
2023-04-04T05:06:25.630Z,25.05
2023-04-04T05:07:25.676Z,25.39
2023-04-04T05:08:25.622Z,26.68
2023-04-04T05:09:39.996Z,26.39
2023-04-04T05:10:25.628Z,27.30
2023-04-04T05:11:25.628Z,28.41
2023-04-04T05:12:25.622Z,29.56
2023-04-04T05:13:25.628Z,28.81
2023-04-04T05:14:25.628Z,27.81
2023-04-04T05:15:25.629Z,26.90
2023-04-04T05:16:25.650Z,27.52
2023-04-04T05:17:25.677Z,25.00
2023-04-04T05:18:25.627Z,25.52
2023-04-04T05:19:25.650Z,27.92
2023-04-04T05:20:25.627Z,28.12
2023-04-04T05:21:25.636Z,29.24
2023-04-04T05:22:25.998Z,27.28
2023-04-04T05:23:25.689Z,30.66
2023-04-04T05:24:25.639Z,29.46
2023-04-04T05:25:25.637Z,25.64
2023-04-04T05:26:26.008Z,28.60
2023-04-04T05:27:25.639Z,25.93
2023-04-04T05:28:25.632Z,25.44
2023-04-04T05:29:25.632Z,27.66
2023-04-04T05:30:25.632Z,28.60
2023-04-04T05:31:25.663Z,30.32
2023-04-04T05:32:26.044Z,28.93
2023-04-04T05:33:26.557Z,29.14
2023-04-04T05:34:25.647Z,29.10
2023-04-04T05:35:25.709Z,30.13
2023-04-04T05:36:25.672Z,28.63
2023-04-04T05:37:25.641Z,27.76
2023-04-04T05:38:25.637Z,28.00
2023-04-04T05:39:25.638Z,27.89
2023-04-04T05:40:25.650Z,27.80
2023-04-04T05:41:25.701Z,28.52
2023-04-04T05:42:25.753Z,28.87
2023-04-04T05:43:32.522Z,27.91
2023-04-04T05:45:44.030Z,25.00
2023-04-04T05:46:45.389Z,25.00
2023-04-04T05:47:59.944Z,25.00
2023-04-04T05:49:03.453Z,25.00
2023-04-04T05:50:04.429Z,25.00
2023-04-04T05:51:04.456Z,25.00
2023-04-04T05:52:04.437Z,25.00
2023-04-04T05:53:04.427Z,25.00
2023-04-04T05:54:04.421Z,26.99
2023-04-04T05:55:04.422Z,25.52
2023-04-04T05:56:04.443Z,28.33
2023-04-04T05:57:04.417Z,25.57
2023-04-04T05:58:04.407Z,27.95
2023-04-04T05:59:04.428Z,25.00
2023-04-04T06:00:04.425Z,27.84
2023-04-04T06:01:04.387Z,25.95
2023-04-04T06:02:04.372Z,26.70
2023-04-04T06:03:04.440Z,27.97
2023-04-04T06:04:04.358Z,29.32
2023-04-04T06:05:04.397Z,29.63
2023-04-04T06:06:04.411Z,26.29
2023-04-04T06:07:04.340Z,26.07
2023-04-04T06:08:04.346Z,26.54
2023-04-04T06:09:05.422Z,26.86
2023-04-04T06:10:04.348Z,28.73
2023-04-04T06:11:04.364Z,28.45
2023-04-04T06:12:04.356Z,26.98
2023-04-04T06:13:04.338Z,27.92
2023-04-04T06:14:04.338Z,27.85
2023-04-04T06:15:04.329Z,26.53
2023-04-04T06:16:04.346Z,26.63
2023-04-04T06:17:04.351Z,28.04
2023-04-04T06:18:04.383Z,27.01
2023-04-04T06:19:04.321Z,25.11
2023-04-04T06:20:04.308Z,28.21
2023-04-04T06:21:04.399Z,25.39
2023-04-04T06:22:04.311Z,30.12
2023-04-04T06:23:04.305Z,26.67
2023-04-04T06:24:04.286Z,29.93
2023-04-04T06:25:04.293Z,29.14
2023-04-04T06:26:04.278Z,26.68
2023-04-04T06:27:04.290Z,27.35
2023-04-04T06:28:04.256Z,31.71
2023-04-04T06:29:04.269Z,27.50
2023-04-04T06:30:04.240Z,27.49
2023-04-04T06:31:04.255Z,27.17
2023-04-04T06:32:04.261Z,28.72
2023-04-04T06:33:04.251Z,30.27
2023-04-04T06:34:04.216Z,28.55
2023-04-04T06:35:04.220Z,26.23
2023-04-04T06:36:04.210Z,28.31
2023-04-04T06:37:04.226Z,28.22
2023-04-04T06:38:04.224Z,27.78
2023-04-04T06:39:04.228Z,27.78
2023-04-04T06:40:04.308Z,25.75
2023-04-04T06:41:04.330Z,27.96
2023-04-04T06:42:04.385Z,28.54
2023-04-04T06:43:04.416Z,28.43
2023-04-04T06:44:04.485Z,28.00
2023-04-04T06:45:04.513Z,26.86
2023-04-04T06:46:04.577Z,27.56
2023-04-04T06:47:04.765Z,29.06
2023-04-04T06:48:04.708Z,28.07
2023-04-04T06:49:04.672Z,27.62
2023-04-04T06:50:04.724Z,27.85
2023-04-04T06:51:04.794Z,29.20
2023-04-04T06:52:04.812Z,29.74
2023-04-04T06:53:04.883Z,29.40
2023-04-04T06:54:04.911Z,27.19
2023-04-04T06:55:04.956Z,30.61
2023-04-04T06:56:05.048Z,28.04
2023-04-04T06:57:05.060Z,28.41
2023-04-04T06:58:05.114Z,26.96
2023-04-04T06:59:05.189Z,27.87
2023-04-04T07:00:05.173Z,28.96
2023-04-04T07:01:05.360Z,29.18
2023-04-04T07:02:05.293Z,26.65
2023-04-04T07:03:05.353Z,30.96
2023-04-04T07:04:05.409Z,28.58
2023-04-04T07:05:05.401Z,27.94
2023-04-04T07:06:05.559Z,28.46
2023-04-04T07:07:05.499Z,27.20
2023-04-04T07:08:05.522Z,28.72
2023-04-04T07:09:08.864Z,28.05
2023-04-04T07:10:05.581Z,28.38
2023-04-04T07:11:05.558Z,28.81
2023-04-04T07:12:05.547Z,29.28
2023-04-04T07:13:05.514Z,29.67
2023-04-04T07:14:05.517Z,29.82
2023-04-04T07:15:05.500Z,32.01
2023-04-04T07:16:05.517Z,31.37
2023-04-04T07:17:13.688Z,30.43
2023-04-04T07:18:05.548Z,30.85
2023-04-04T07:19:05.472Z,31.54
2023-04-04T07:20:05.445Z,31.73
2023-04-04T07:21:05.473Z,31.90
2023-04-04T07:22:05.423Z,32.01
2023-04-04T07:23:05.408Z,32.28
2023-04-04T07:24:05.409Z,33.03
2023-04-04T07:25:05.433Z,32.21
2023-04-04T07:26:05.410Z,32.88
2023-04-04T07:27:05.374Z,29.18
2023-04-04T07:28:12.378Z,29.52
2023-04-04T07:29:05.350Z,29.94
2023-04-04T07:30:05.321Z,30.74
2023-04-04T07:31:05.317Z,31.03
2023-04-04T07:32:05.383Z,33.24
2023-04-04T07:33:05.317Z,33.28
2023-04-04T07:34:05.319Z,31.05
2023-04-04T07:35:05.287Z,32.30
2023-04-04T07:36:05.341Z,33.16
2023-04-04T07:37:05.258Z,32.28
2023-04-04T07:38:05.260Z,32.03
2023-04-04T07:39:05.240Z,30.27
2023-04-04T07:40:05.232Z,29.61
2023-04-04T07:41:05.249Z,29.85
2023-04-04T07:42:05.218Z,30.30
2023-04-04T07:43:05.223Z,29.04
2023-04-04T07:44:05.197Z,30.78
2023-04-04T07:45:05.181Z,31.96
2023-04-04T07:46:05.210Z,32.20
2023-04-04T07:47:09.830Z,32.33
2023-04-04T07:48:05.202Z,32.63
2023-04-04T07:49:05.147Z,33.20
2023-04-04T07:50:05.158Z,33.22
2023-04-04T07:51:05.142Z,33.30
2023-04-04T07:52:05.132Z,31.23
2023-04-04T07:53:05.121Z,31.60
2023-04-04T07:54:05.106Z,31.80
2023-04-04T07:55:05.106Z,32.51
2023-04-04T07:56:05.128Z,32.43
2023-04-04T07:57:05.180Z,31.43
2023-04-04T07:58:05.151Z,33.92
2023-04-04T07:59:05.148Z,33.72
2023-04-04T08:00:05.081Z,34.64
2023-04-04T08:01:05.076Z,33.91
2023-04-04T08:02:05.053Z,34.38
2023-04-04T08:03:05.215Z,34.75
2023-04-04T08:04:05.174Z,33.88
2023-04-04T08:05:05.052Z,34.21
2023-04-04T08:06:05.043Z,34.62
2023-04-04T08:07:05.050Z,37.59
2023-04-04T08:08:05.029Z,36.28
2023-04-04T08:09:05.024Z,36.45
2023-04-04T08:10:05.033Z,37.10
2023-04-04T08:11:05.021Z,35.92
2023-04-04T08:12:05.015Z,36.58
2023-04-04T08:13:05.038Z,35.43
2023-04-04T08:14:05.006Z,35.79
2023-04-04T08:15:04.990Z,36.28
2023-04-04T08:16:05.038Z,35.87
2023-04-04T08:17:04.984Z,38.06
2023-04-04T08:18:05.020Z,36.81
2023-04-04T08:19:04.968Z,37.92
2023-04-04T08:20:04.997Z,34.03
2023-04-04T08:21:04.950Z,38.79
2023-04-04T08:22:04.941Z,37.87
2023-04-04T08:23:04.929Z,37.85
2023-04-04T08:24:04.934Z,39.03
2023-04-04T08:25:04.905Z,38.62
2023-04-04T08:26:04.945Z,37.46
2023-04-04T08:27:05.961Z,36.65
2023-04-04T08:28:05.020Z,37.61
2023-04-04T08:29:05.068Z,37.54
2023-04-04T08:30:05.068Z,38.28
2023-04-04T08:31:05.176Z,39.30
2023-04-04T08:32:05.132Z,37.84
2023-04-04T08:33:06.411Z,35.89
2023-04-04T08:34:05.199Z,37.89
2023-04-04T08:35:05.196Z,38.56
2023-04-04T08:36:05.313Z,36.63
2023-04-04T08:37:05.265Z,40.23
2023-04-04T08:38:05.296Z,36.79
2023-04-04T08:39:05.312Z,39.66
2023-04-04T08:40:05.358Z,40.87
2023-04-04T08:41:05.432Z,37.29
2023-04-04T08:42:05.516Z,41.09
2023-04-04T08:43:05.453Z,36.93
2023-04-04T08:44:05.449Z,37.12
2023-04-04T08:45:05.519Z,38.23
2023-04-04T08:46:05.501Z,37.53
2023-04-04T08:47:05.630Z,36.67
2023-04-04T08:48:05.652Z,36.64
2023-04-04T08:49:05.701Z,37.16
2023-04-04T08:50:05.591Z,37.55
2023-04-04T08:51:05.614Z,37.04
2023-04-04T08:52:05.641Z,36.72
2023-04-04T08:53:05.682Z,37.66
2023-04-04T08:54:05.686Z,38.01
2023-04-04T08:55:05.739Z,37.09
2023-04-04T08:56:05.729Z,39.65
2023-04-04T08:57:05.791Z,38.63
2023-04-04T08:58:05.804Z,37.01
2023-04-04T08:59:05.945Z,39.17
2023-04-04T09:00:06.041Z,39.51
2023-04-04T09:01:05.903Z,38.22
2023-04-04T09:02:05.932Z,40.27
2023-04-04T09:03:06.016Z,37.91
2023-04-04T09:04:05.911Z,38.15
2023-04-04T09:05:07.370Z,38.50
2023-04-04T09:06:06.051Z,40.32
2023-04-04T09:07:06.071Z,40.16
2023-04-04T09:08:06.102Z,40.97
2023-04-04T09:09:06.122Z,40.43
2023-04-04T09:10:06.154Z,41.39
2023-04-04T09:11:06.164Z,41.20
2023-04-04T09:12:06.193Z,39.07
2023-04-04T09:13:15.546Z,38.88
2023-04-04T09:14:06.194Z,39.22
2023-04-04T09:15:06.171Z,40.14
2023-04-04T09:16:06.194Z,41.06
2023-04-04T09:17:06.167Z,41.36
2023-04-04T09:18:06.177Z,41.51
2023-04-04T09:19:06.124Z,43.91
2023-04-04T09:20:06.120Z,42.37
2023-04-04T09:21:06.096Z,42.66
2023-04-04T09:22:06.175Z,42.08
2023-04-04T09:23:06.076Z,41.52
2023-04-04T09:24:06.058Z,40.30
2023-04-04T09:25:06.048Z,39.48
2023-04-04T09:26:06.057Z,40.69
2023-04-04T09:27:06.028Z,41.21
2023-04-04T09:28:06.200Z,40.35
2023-04-04T09:29:06.013Z,41.42
2023-04-04T09:30:06.024Z,40.47
2023-04-04T09:31:06.224Z,40.25
2023-04-04T09:32:06.033Z,39.86
2023-04-04T09:33:06.008Z,41.55
2023-04-04T09:34:05.919Z,42.85
2023-04-04T09:35:05.899Z,40.15
2023-04-04T09:36:05.959Z,39.76
2023-04-04T09:37:05.922Z,40.36
2023-04-04T09:38:05.867Z,41.84
2023-04-04T09:39:05.877Z,41.55
2023-04-04T09:40:05.907Z,42.84
2023-04-04T09:41:05.893Z,42.89
2023-04-04T09:42:05.818Z,42.58
2023-04-04T09:43:05.798Z,41.33
2023-04-04T09:44:05.801Z,43.09
2023-04-04T09:45:05.777Z,42.34
2023-04-04T09:46:05.796Z,41.78
2023-04-04T09:47:05.796Z,42.23
2023-04-04T09:48:05.786Z,42.35
2023-04-04T09:49:05.777Z,43.32
2023-04-04T09:50:05.755Z,41.85
2023-04-04T09:51:05.735Z,42.68
2023-04-04T09:52:05.768Z,44.76
2023-04-04T09:53:05.706Z,43.05
2023-04-04T09:54:06.475Z,44.21
2023-04-04T09:55:05.684Z,44.48
2023-04-04T09:56:05.688Z,44.67
2023-04-04T09:57:05.665Z,44.86
2023-04-04T09:58:05.671Z,45.76
2023-04-04T09:59:05.683Z,45.88
2023-04-04T10:00:05.648Z,47.98
2023-04-04T10:01:05.680Z,45.81
2023-04-04T10:02:05.666Z,46.03
2023-04-04T10:03:05.675Z,46.53
2023-04-04T10:04:05.698Z,44.95
2023-04-04T10:05:06.524Z,44.68
2023-04-04T10:06:06.995Z,47.35
2023-04-04T10:07:05.596Z,49.31
2023-04-04T10:08:05.587Z,50.56
2023-04-04T10:09:05.609Z,46.09
2023-04-04T10:10:05.575Z,47.40
2023-04-04T10:12:04.561Z,47.27
2023-04-04T10:13:05.554Z,47.08
2023-04-04T10:14:05.575Z,47.37
2023-04-04T10:15:05.521Z,45.40
2023-04-04T10:16:05.526Z,47.41
2023-04-04T10:17:05.505Z,43.80
2023-04-04T10:18:05.487Z,45.72
2023-04-04T10:19:05.505Z,45.81
2023-04-04T10:20:05.495Z,45.10
2023-04-04T10:21:15.385Z,45.92
2023-04-04T10:22:05.471Z,46.31
2023-04-04T10:23:05.493Z,46.85
2023-04-04T10:24:05.438Z,46.85
2023-04-04T10:25:05.419Z,47.17
2023-04-04T10:26:05.413Z,45.91
2023-04-04T10:27:05.394Z,43.58
2023-04-04T10:28:05.391Z,44.94
2023-04-04T10:29:05.430Z,45.79
2023-04-04T10:30:05.368Z,47.21
2023-04-04T10:31:06.686Z,44.92
2023-04-04T10:32:05.411Z,45.08
2023-04-04T10:33:05.382Z,45.60
2023-04-04T10:34:05.325Z,45.50
2023-04-04T10:35:05.322Z,46.19
2023-04-04T10:36:05.315Z,46.03
2023-04-04T10:37:05.328Z,44.62
2023-04-04T10:38:05.303Z,45.75
2023-04-04T10:39:05.307Z,45.91
2023-04-04T10:40:05.293Z,44.28
2023-04-04T10:41:05.274Z,45.23
2023-04-04T10:42:05.261Z,44.42
2023-04-04T10:43:05.255Z,44.38
2023-04-04T10:44:05.267Z,44.37
2023-04-04T10:45:16.954Z,45.97
2023-04-04T10:46:05.304Z,46.35
2023-04-04T10:47:05.224Z,46.74
2023-04-04T10:48:05.320Z,46.85
2023-04-04T10:49:05.253Z,48.20
2023-04-04T10:50:05.201Z,47.85
2023-04-04T10:51:05.196Z,47.73
2023-04-04T10:52:05.188Z,46.05
2023-04-04T10:53:05.209Z,47.19
2023-04-04T10:54:05.166Z,47.45
2023-04-04T10:55:05.155Z,45.79
2023-04-04T10:56:05.154Z,44.33
2023-04-04T10:57:05.142Z,47.87
2023-04-04T10:58:05.138Z,44.59
2023-04-04T10:59:05.208Z,44.33
2023-04-04T11:00:05.121Z,45.30
2023-04-04T11:01:05.162Z,44.27
2023-04-04T11:02:05.133Z,45.02
2023-04-04T11:03:05.179Z,45.93
2023-04-04T11:04:05.162Z,44.40
2023-04-04T11:05:05.080Z,44.80
2023-04-04T11:06:05.075Z,44.93
2023-04-04T11:07:05.066Z,44.66
2023-04-04T11:08:08.544Z,43.98
2023-04-04T11:09:05.068Z,44.30
2023-04-04T11:10:05.037Z,44.54
2023-04-04T11:11:09.713Z,44.54
2023-04-04T11:12:05.024Z,44.33
2023-04-04T11:13:12.239Z,45.10
2023-04-04T11:14:04.992Z,44.54
2023-04-04T11:15:04.981Z,45.33
2023-04-04T11:16:05.045Z,46.57
2023-04-04T11:17:04.961Z,46.58
2023-04-04T11:18:14.279Z,46.59
2023-04-04T11:19:04.928Z,44.42
2023-04-04T11:20:04.995Z,45.29
2023-04-04T11:21:04.896Z,46.39
2023-04-04T11:22:04.894Z,48.68
2023-04-04T11:23:05.064Z,48.38
2023-04-04T11:24:04.862Z,46.45
2023-04-04T11:25:04.882Z,45.55
2023-04-04T11:26:04.827Z,45.66
2023-04-04T11:27:04.806Z,46.76
2023-04-04T11:28:04.858Z,47.20
2023-04-04T11:29:04.786Z,46.70
2023-04-04T11:30:06.365Z,47.17
2023-04-04T11:31:04.751Z,47.25
2023-04-04T11:32:04.757Z,47.01
2023-04-04T11:33:07.764Z,46.43
2023-04-04T11:34:04.764Z,47.42
2023-04-04T11:35:04.689Z,47.44
2023-04-04T11:36:06.204Z,47.97
2023-04-04T11:37:04.667Z,47.40
2023-04-04T11:38:04.645Z,47.55
2023-04-04T11:39:04.620Z,47.44
2023-04-04T11:40:04.600Z,46.31
2023-04-04T11:41:04.612Z,46.42
2023-04-04T11:42:04.582Z,45.54
2023-04-04T11:43:04.566Z,45.52
2023-04-04T11:44:04.668Z,46.10
2023-04-04T11:45:04.578Z,46.01
2023-04-04T11:46:04.574Z,46.77
2023-04-04T11:47:04.501Z,45.99
2023-04-04T11:48:04.521Z,44.38
2023-04-04T11:49:04.513Z,47.38
2023-04-04T11:50:04.457Z,45.96
2023-04-04T11:51:04.441Z,48.04
2023-04-04T11:52:04.421Z,45.70
2023-04-04T11:53:04.413Z,47.28
2023-04-04T11:54:04.462Z,47.07
2023-04-04T11:55:04.365Z,45.42
2023-04-04T11:56:04.351Z,47.86
2023-04-04T11:57:04.464Z,44.73
2023-04-04T11:58:04.324Z,45.07
2023-04-04T11:59:11.099Z,44.90
2023-04-04T12:00:04.301Z,45.24
2023-04-04T12:01:04.272Z,46.11
2023-04-04T12:02:04.248Z,46.08
2023-04-04T12:03:04.309Z,47.41
2023-04-04T12:04:04.249Z,47.42
2023-04-04T12:05:04.254Z,44.97
2023-04-04T12:06:04.191Z,45.65
2023-04-04T12:07:04.166Z,48.29
2023-04-04T12:08:04.146Z,47.50
2023-04-04T12:09:04.158Z,45.39
2023-04-04T12:10:04.283Z,45.99
2023-04-04T12:11:04.097Z,46.46
2023-04-04T12:12:04.092Z,46.82
2023-04-04T12:13:04.090Z,46.13
2023-04-04T12:14:04.053Z,44.24
2023-04-04T12:15:16.584Z,46.83
2023-04-04T12:16:04.045Z,47.15
2023-04-04T12:17:04.005Z,47.79
2023-04-04T12:18:04.055Z,47.42
2023-04-04T12:19:03.976Z,47.89
2023-04-04T12:20:03.997Z,49.02
2023-04-04T12:21:03.945Z,48.62
2023-04-04T12:22:05.371Z,48.12
2023-04-04T12:23:03.924Z,50.60
2023-04-04T12:24:03.940Z,48.45
2023-04-04T12:25:03.946Z,47.75
2023-04-04T12:26:03.955Z,47.06
2023-04-04T12:27:03.981Z,47.53
2023-04-04T12:28:03.979Z,48.15
2023-04-04T12:29:04.085Z,46.13
2023-04-04T12:30:04.004Z,48.26
2023-04-04T12:31:04.044Z,48.74
2023-04-04T12:32:04.063Z,46.84
2023-04-04T12:33:04.054Z,47.07
2023-04-04T12:34:04.062Z,47.58
2023-04-04T12:35:04.065Z,49.73
2023-04-04T12:36:04.092Z,48.66
2023-04-04T12:37:04.173Z,45.80
2023-04-04T12:38:04.105Z,46.72
2023-04-04T12:39:04.110Z,46.58
2023-04-04T12:40:04.123Z,47.24
2023-04-04T12:41:04.125Z,46.95
2023-04-04T12:42:04.135Z,47.10
2023-04-04T12:43:04.152Z,46.82
2023-04-04T12:44:04.144Z,47.89
2023-04-04T12:45:04.226Z,46.58
2023-04-04T12:46:04.181Z,47.58
2023-04-04T12:47:04.273Z,48.56
2023-04-04T12:48:04.230Z,47.23
2023-04-04T12:49:04.193Z,48.11
2023-04-04T12:50:04.199Z,50.07
2023-04-04T12:51:04.209Z,47.52
2023-04-04T12:52:04.216Z,49.31
2023-04-04T12:53:23.994Z,49.96
2023-04-04T12:54:04.212Z,50.17
2023-04-04T12:55:08.025Z,50.38
2023-04-04T12:56:04.179Z,50.27
2023-04-04T12:57:04.256Z,50.49
2023-04-04T12:58:04.189Z,50.60